createdAt,value
2022-11-30T00:03:38.208Z,101813.25
2022-11-30T00:07:39.771Z,101817.63
2022-11-30T00:11:41.279Z,101804.31
2022-11-30T00:15:42.705Z,101811.59
2022-11-30T00:19:44.138Z,101809.38
2022-11-30T00:23:47.269Z,101812.94
2022-11-30T00:27:48.720Z,101821.94
2022-11-30T00:31:50.230Z,101827.38
2022-11-30T00:35:59.974Z,101829.81
2022-11-30T00:40:01.531Z,101812.72
2022-11-30T00:44:03.016Z,101814.94
2022-11-30T00:48:04.555Z,101807.59
2022-11-30T00:52:06.422Z,101817.44
2022-11-30T00:56:09.514Z,101817.91
2022-11-30T01:00:11.342Z,101825.28
2022-11-30T01:04:12.775Z,101824.16
2022-11-30T01:08:14.413Z,101829.41
2022-11-30T01:12:18.269Z,101828.22
2022-11-30T01:16:29.424Z,101828.47
2022-11-30T01:20:30.962Z,101832.91
2022-11-30T01:24:32.407Z,101838.88
2022-11-30T01:28:34.247Z,101832.16
2022-11-30T01:32:35.856Z,101841.94
2022-11-30T01:36:38.908Z,101837.66
2022-11-30T01:40:40.328Z,101842.16
2022-11-30T01:44:51.428Z,101845.16
2022-11-30T01:49:12.082Z,101836.81
2022-11-30T01:53:14.052Z,101839.75
2022-11-30T01:57:24.627Z,101844.88
2022-11-30T02:01:26.236Z,101846.03
2022-11-30T02:05:28.160Z,101847.66
2022-11-30T02:09:31.563Z,101848.50
2022-11-30T02:13:47.618Z,101853.72
2022-11-30T02:18:11.726Z,101841.44
2022-11-30T02:22:55.019Z,101856.19
2022-11-30T02:27:26.715Z,101853.19
2022-11-30T02:31:40.154Z,101857.25
2022-11-30T02:35:50.252Z,101857.88
2022-11-30T02:39:55.026Z,101849.56
2022-11-30T02:43:56.496Z,101847.63
2022-11-30T02:48:12.064Z,101843.88
2022-11-30T02:52:14.990Z,101850.56
2022-11-30T02:56:17.722Z,101852.91
2022-11-30T03:00:19.761Z,101851.34
2022-11-30T03:04:21.176Z,101856.78
2022-11-30T03:08:22.738Z,101858.72
2022-11-30T03:12:24.242Z,101865.03
2022-11-30T03:16:25.726Z,101866.31
2022-11-30T03:20:27.164Z,101858.13
2022-11-30T03:24:28.599Z,101863.63
2022-11-30T03:28:30.175Z,101858.78
2022-11-30T03:32:31.584Z,101862.00
2022-11-30T03:36:33.112Z,101859.81
2022-11-30T03:40:36.630Z,101861.31
2022-11-30T03:44:38.154Z,101868.91
2022-11-30T03:48:41.314Z,101864.28
2022-11-30T03:52:42.766Z,101870.25
2022-11-30T03:56:44.201Z,101879.03
2022-11-30T04:00:45.673Z,101880.34
2022-11-30T04:04:47.332Z,101882.13
2022-11-30T04:08:49.358Z,101886.66
2022-11-30T04:12:50.812Z,101884.50
2022-11-30T04:16:52.314Z,101886.94
2022-11-30T04:20:56.032Z,101887.78
2022-11-30T04:24:57.458Z,101884.56
2022-11-30T04:29:03.237Z,101893.91
2022-11-30T04:33:06.586Z,101894.56
2022-11-30T04:37:07.993Z,101897.28
2022-11-30T04:41:09.546Z,101902.19
2022-11-30T04:45:11.541Z,101905.13
2022-11-30T04:49:12.986Z,101915.28
2022-11-30T04:53:14.433Z,101908.75
2022-11-30T04:57:15.885Z,101914.25
2022-11-30T05:01:17.338Z,101913.72
2022-11-30T05:05:18.837Z,101910.19
2022-11-30T05:09:20.225Z,101912.94
2022-11-30T05:13:23.387Z,101917.00
2022-11-30T05:17:24.814Z,101918.97
2022-11-30T05:21:26.319Z,101923.59
2022-11-30T05:25:27.814Z,101932.38
2022-11-30T05:29:29.263Z,101925.34
2022-11-30T05:33:30.751Z,101931.41
2022-11-30T05:37:32.253Z,101933.31
2022-11-30T05:41:33.705Z,101941.78
2022-11-30T05:45:35.169Z,101937.63
2022-11-30T05:49:36.562Z,101944.78
2022-11-30T05:53:38.641Z,101954.44
2022-11-30T05:57:40.809Z,101949.53
2022-11-30T06:01:42.278Z,101955.78
2022-11-30T06:05:43.752Z,101961.00
2022-11-30T06:09:45.173Z,101950.00
2022-11-30T06:13:46.602Z,101957.38
2022-11-30T06:17:48.065Z,101963.75
2022-11-30T06:21:49.484Z,101961.28
2022-11-30T06:25:50.919Z,101965.28
2022-11-30T06:29:52.323Z,101965.59
2022-11-30T06:33:57.559Z,101969.47
2022-11-30T06:38:00.505Z,101973.78
2022-11-30T06:42:01.909Z,101972.78
2022-11-30T06:46:04.081Z,101981.00
2022-11-30T06:50:06.269Z,101987.34
2022-11-30T06:54:07.942Z,101982.91
2022-11-30T06:58:10.355Z,101995.53
2022-11-30T07:02:17.409Z,101994.97
2022-11-30T07:06:19.883Z,102003.69
2022-11-30T07:10:22.850Z,102002.34
2022-11-30T07:14:25.448Z,101999.63
2022-11-30T07:18:31.613Z,102008.09
2022-11-30T07:22:33.617Z,102007.47
2022-11-30T07:26:35.053Z,102014.41
2022-11-30T07:30:36.452Z,102019.88
2022-11-30T07:34:37.918Z,102028.84
2022-11-30T07:38:39.586Z,102031.94
2022-11-30T07:42:41.772Z,102024.03
2022-11-30T07:46:43.312Z,102028.38
2022-11-30T07:50:44.774Z,102035.47
2022-11-30T07:54:46.601Z,102040.72
2022-11-30T07:58:49.869Z,102031.38
2022-11-30T08:02:51.633Z,102036.72
2022-11-30T08:06:54.748Z,102038.72
2022-11-30T08:10:57.033Z,102032.38
2022-11-30T08:15:19.456Z,102039.28
2022-11-30T08:19:20.424Z,102038.94
2022-11-30T08:23:21.861Z,102049.13
2022-11-30T08:27:23.353Z,102054.78
2022-11-30T08:31:24.860Z,102052.56
2022-11-30T08:35:26.351Z,102056.66
2022-11-30T08:39:31.428Z,102061.09
2022-11-30T08:43:33.374Z,102054.47
2022-11-30T08:47:34.888Z,102059.88
2022-11-30T08:52:00.755Z,102067.06
2022-11-30T08:55:59.698Z,102066.47
2022-11-30T09:00:01.103Z,102053.25
2022-11-30T09:04:02.532Z,102063.09
2022-11-30T09:08:04.213Z,102059.16
2022-11-30T09:12:07.143Z,102070.69
2022-11-30T09:16:09.185Z,102068.66
2022-11-30T09:20:11.297Z,102065.53
2022-11-30T09:24:12.748Z,102060.88
2022-11-30T09:28:14.198Z,102062.34
2022-11-30T09:32:15.669Z,102063.16
2022-11-30T09:36:22.029Z,102064.63
2022-11-30T09:40:24.089Z,102067.34
2022-11-30T09:44:51.033Z,102061.50
2022-11-30T09:49:42.623Z,102058.22
2022-11-30T09:53:49.178Z,102051.31
2022-11-30T09:57:57.509Z,102053.44
2022-11-30T10:02:04.188Z,102056.41
2022-11-30T10:06:11.131Z,102063.56
2022-11-30T10:10:34.880Z,102052.75
2022-11-30T10:15:02.807Z,102043.16
2022-11-30T10:19:22.456Z,102052.50
2022-11-30T10:23:59.393Z,102059.69
2022-11-30T10:28:45.692Z,102055.53
2022-11-30T10:32:43.695Z,102054.19
2022-11-30T10:37:07.743Z,102042.81
2022-11-30T10:41:18.295Z,102049.81
2022-11-30T10:45:24.786Z,102055.44
2022-11-30T10:49:29.338Z,102053.66
2022-11-30T10:53:32.569Z,102047.91
2022-11-30T10:57:34.061Z,102049.34
2022-11-30T11:01:38.114Z,102049.88
2022-11-30T11:05:40.181Z,102047.94
2022-11-30T11:09:47.056Z,102050.28
2022-11-30T11:13:48.990Z,102063.50
2022-11-30T11:17:51.769Z,102059.06
2022-11-30T11:21:53.775Z,102055.13
2022-11-30T11:25:55.634Z,102057.44
2022-11-30T11:30:00.186Z,102053.19
2022-11-30T11:34:03.226Z,102058.06
2022-11-30T11:38:28.212Z,102055.47
2022-11-30T11:42:34.271Z,102055.22
2022-11-30T11:46:39.337Z,102068.09
2022-11-30T11:55:06.184Z,102073.16
2022-11-30T11:59:10.720Z,102066.84
2022-11-30T12:03:30.001Z,102058.94
2022-11-30T12:07:57.552Z,102070.53
2022-11-30T12:11:59.061Z,102069.88
2022-11-30T12:16:08.561Z,102076.88
2022-11-30T12:20:15.756Z,102073.59
2022-11-30T12:25:05.642Z,102074.13
2022-11-30T12:29:29.957Z,102068.75
2022-11-30T12:33:31.353Z,102076.25
2022-11-30T12:38:01.858Z,102070.41
2022-11-30T12:42:12.322Z,102077.78
2022-11-30T12:46:27.272Z,102071.81
2022-11-30T12:50:52.105Z,102069.59
2022-11-30T12:55:24.143Z,102069.69
2022-11-30T12:59:51.890Z,102072.78
2022-11-30T13:04:04.044Z,102072.78
2022-11-30T13:08:20.202Z,102072.47
2022-11-30T13:12:36.845Z,102080.38
2022-11-30T13:16:39.736Z,102080.94
2022-11-30T13:21:06.999Z,102088.72
2022-11-30T13:25:51.948Z,102094.00
2022-11-30T13:30:37.365Z,102086.88
2022-11-30T13:34:39.787Z,102091.06
2022-11-30T13:38:41.237Z,102097.34
2022-11-30T13:42:51.345Z,102103.91
2022-11-30T13:46:53.652Z,102102.38
2022-11-30T13:50:55.195Z,102104.88
2022-11-30T13:54:58.178Z,102102.91
2022-11-30T13:59:35.823Z,102105.72
2022-11-30T14:03:38.925Z,102114.97
2022-11-30T14:07:40.425Z,102108.25
2022-11-30T14:11:42.900Z,102113.09
2022-11-30T14:15:44.268Z,102123.94
2022-11-30T14:19:49.608Z,102123.44
2022-11-30T14:24:23.485Z,102134.41
2022-11-30T14:28:41.305Z,102140.44
2022-11-30T14:32:49.067Z,102133.28
2022-11-30T14:37:00.499Z,102138.16
2022-11-30T14:41:01.954Z,102148.09
2022-11-30T14:45:04.044Z,102149.97
2022-11-30T14:49:21.127Z,102149.66
2022-11-30T14:53:55.046Z,102150.47
2022-11-30T14:58:08.441Z,102146.38
2022-11-30T15:02:31.548Z,102148.78
2022-11-30T15:06:33.810Z,102145.56
2022-11-30T15:10:36.054Z,102150.22
2022-11-30T15:14:37.516Z,102157.53
2022-11-30T15:18:39.049Z,102163.19
2022-11-30T15:22:40.523Z,102167.03
2022-11-30T15:27:11.084Z,102172.38
2022-11-30T15:31:15.928Z,102176.50
2022-11-30T15:35:20.193Z,102175.88
2022-11-30T15:39:24.196Z,102170.63
2022-11-30T15:43:25.873Z,102175.91
2022-11-30T15:47:36.858Z,102184.63
2022-11-30T15:51:44.138Z,102182.72
2022-11-30T15:55:46.588Z,102194.41
2022-11-30T16:00:16.297Z,102198.59
2022-11-30T16:04:17.786Z,102196.13
2022-11-30T16:08:19.286Z,102200.78
2022-11-30T16:12:31.436Z,102215.34
2022-11-30T16:16:33.179Z,102210.31
2022-11-30T16:20:34.705Z,102217.06
2022-11-30T16:24:37.094Z,102212.69
2022-11-30T16:28:38.920Z,102207.78
2022-11-30T16:32:40.475Z,102203.69
2022-11-30T16:36:41.951Z,102207.78
2022-11-30T16:40:43.396Z,102214.97
2022-11-30T16:44:44.949Z,102220.84
2022-11-30T16:48:47.212Z,102222.69
2022-11-30T16:52:48.850Z,102223.34
2022-11-30T16:56:50.419Z,102225.19
2022-11-30T17:00:51.978Z,102221.97
2022-11-30T17:04:53.470Z,102225.47
2022-11-30T17:08:54.961Z,102232.03
2022-11-30T17:12:56.524Z,102224.91
2022-11-30T17:16:57.999Z,102229.00
2022-11-30T17:20:59.964Z,102237.09
2022-11-30T17:25:01.468Z,102243.13
2022-11-30T17:29:03.582Z,102234.03
2022-11-30T17:33:05.041Z,102238.47
2022-11-30T17:37:06.639Z,102247.16
2022-11-30T17:41:12.996Z,102246.09
2022-11-30T17:45:17.249Z,102255.47
2022-11-30T17:49:18.785Z,102254.84
2022-11-30T17:53:20.546Z,102251.03
2022-11-30T17:57:22.185Z,102246.72
2022-11-30T18:01:27.291Z,102265.81
2022-11-30T18:05:28.845Z,102256.81
2022-11-30T18:09:30.550Z,102261.47
2022-11-30T18:13:32.204Z,102261.50
2022-11-30T18:17:34.353Z,102278.72
2022-11-30T18:21:35.830Z,102273.56
2022-11-30T18:25:37.372Z,102279.28
2022-11-30T18:29:38.880Z,102286.56
2022-11-30T18:33:40.384Z,102280.50
2022-11-30T18:37:41.897Z,102285.44
2022-11-30T18:41:46.350Z,102292.97
2022-11-30T18:45:49.415Z,102293.13
2022-11-30T18:49:50.987Z,102293.72
2022-11-30T18:54:04.582Z,102294.19
2022-11-30T18:58:06.084Z,102294.75
2022-11-30T19:02:09.111Z,102298.84
2022-11-30T19:06:11.424Z,102297.50
2022-11-30T19:10:12.939Z,102294.19
2022-11-30T19:14:16.986Z,102305.06
2022-11-30T19:18:23.082Z,102301.72
2022-11-30T19:22:31.068Z,102306.28
2022-11-30T19:26:36.166Z,102306.34
2022-11-30T19:30:39.477Z,102318.69
2022-11-30T19:34:40.970Z,102310.53
2022-11-30T19:38:46.227Z,102308.66
2022-11-30T19:42:47.879Z,102309.84
2022-11-30T19:46:52.190Z,102320.09
2022-11-30T19:50:53.925Z,102319.06
2022-11-30T19:55:03.286Z,102325.75
2022-11-30T19:59:09.339Z,102317.97
2022-11-30T20:03:10.947Z,102333.63
2022-11-30T20:07:13.821Z,102328.16
2022-11-30T20:11:16.311Z,102338.88
2022-11-30T20:15:17.865Z,102340.94
2022-11-30T20:19:19.399Z,102342.72
2022-11-30T20:23:20.862Z,102354.50
2022-11-30T20:27:24.880Z,102348.16
2022-11-30T20:31:28.632Z,102350.94
2022-11-30T20:35:46.787Z,102354.53
2022-11-30T20:39:48.318Z,102345.03
2022-11-30T20:43:51.740Z,102351.19
2022-11-30T20:47:53.197Z,102350.41
2022-11-30T20:51:54.665Z,102353.94
2022-11-30T20:55:59.926Z,102352.09
2022-11-30T21:00:01.430Z,102347.69
2022-11-30T21:04:03.189Z,102350.53
2022-11-30T21:08:05.776Z,102352.78
2022-11-30T21:12:08.762Z,102356.44
2022-11-30T21:16:13.648Z,102368.78
2022-11-30T21:20:15.211Z,102368.16
2022-11-30T21:24:16.642Z,102362.63
2022-11-30T21:28:20.281Z,102365.41
2022-11-30T21:32:21.817Z,102368.72
2022-11-30T21:36:23.793Z,102374.94
2022-11-30T21:40:25.253Z,102374.53
2022-11-30T21:44:26.762Z,102378.16
2022-11-30T21:48:29.827Z,102372.59
2022-11-30T21:52:31.362Z,102376.19
2022-11-30T21:56:35.748Z,102377.03
2022-11-30T22:00:37.650Z,102380.88
2022-11-30T22:04:39.146Z,102374.34
2022-11-30T22:08:41.276Z,102384.06
2022-11-30T22:12:42.809Z,102374.28
2022-11-30T22:16:44.839Z,102375.28
2022-11-30T22:20:46.252Z,102380.88
2022-11-30T22:24:47.739Z,102376.56
2022-11-30T22:29:00.765Z,102379.31
2022-11-30T22:33:02.169Z,102374.31
2022-11-30T22:37:03.622Z,102383.16
2022-11-30T22:41:06.224Z,102366.84
2022-11-30T22:45:08.091Z,102372.75
2022-11-30T22:49:17.147Z,102378.34
2022-11-30T22:53:21.535Z,102372.50
2022-11-30T22:57:22.907Z,102375.09
2022-11-30T23:01:26.529Z,102365.38
2022-11-30T23:05:27.960Z,102367.94
2022-11-30T23:09:29.353Z,102365.94
2022-11-30T23:13:31.199Z,102356.50
2022-11-30T23:17:32.628Z,102349.19
2022-11-30T23:21:42.344Z,102350.97
2022-11-30T23:25:43.870Z,102346.91
2022-11-30T23:29:45.486Z,102357.13
2022-11-30T23:33:47.858Z,102353.63
2022-11-30T23:37:50.091Z,102341.94
2022-11-30T23:41:51.598Z,102345.38
2022-11-30T23:45:53.032Z,102352.00
2022-11-30T23:49:54.554Z,102347.66
2022-11-30T23:53:56.054Z,102349.41
2022-11-30T23:57:57.515Z,102360.63
